Time;durP1;ratioP1;P1;durP2;ratioP2;P2;SDS_P1;SDS_P2;PMS_P1;PMS_P2;Temp;Humidity;BMP_temperature;BMP_pressure;BME280_temperature;BME280_humidity;BME280_pressure;Samples;Min_cycle;Max_cycle;Signal;HPM_P1;HPM_P2
2021/11/08 00:02:18;;;;;;;19.63;7.07;;;8.20;99.90;;;;;;4995782;28;20415;-73
2021/11/08 00:04:44;;;;;;;13.90;6.07;;;8.20;99.90;;;;;;5003923;28;20248;-72
2021/11/08 00:07:10;;;;;;;13.20;6.10;;;8.20;99.90;;;;;;5015172;28;20528;-72
2021/11/08 00:09:36;;;;;;;15.83;6.60;;;8.20;99.90;;;;;;5013890;28;20442;-73
2021/11/08 00:12:04;;;;;;;16.63;6.80;;;8.20;99.90;;;;;;5030290;28;20203;-73
2021/11/08 00:14:30;;;;;;;13.07;5.67;;;8.20;99.90;;;;;;5030453;28;20410;-71
2021/11/08 00:22:11;;;;;;;11.20;5.47;;;8.10;99.90;;;;;;4995731;28;20492;-72
2021/11/08 00:24:39;;;;;;;17.33;6.73;;;8.10;99.90;;;;;;4994161;28;21032;-71
2021/11/08 00:27:05;;;;;;;14.40;6.77;;;8.10;99.90;;;;;;5010061;28;20457;-73
2021/11/08 00:29:34;;;;;;;18.00;7.73;;;8.10;99.90;;;;;;5014773;28;20935;-73
2021/11/08 00:32:00;;;;;;;18.77;6.43;;;8.10;99.90;;;;;;5014973;28;20597;-73
2021/11/08 00:34:25;;;;;;;13.70;7.10;;;8.20;99.90;;;;;;5015040;28;20406;-73
2021/11/08 00:36:51;;;;;;;20.07;8.13;;;8.20;99.90;;;;;;5012863;28;20476;-73
2021/11/08 00:39:20;;;;;;;20.50;8.30;;;8.30;99.90;;;;;;5014789;28;20550;-72
2021/11/08 00:41:46;;;;;;;22.50;9.23;;;8.40;99.90;;;;;;5009331;28;20234;-72
2021/11/08 00:44:11;;;;;;;15.63;8.00;;;8.40;99.90;;;;;;4995042;28;20493;-73
2021/11/08 00:46:37;;;;;;;22.87;8.80;;;8.30;99.90;;;;;;4995075;28;20174;-73
2021/11/08 00:49:03;;;;;;;24.00;10.18;;;8.40;99.90;;;;;;4994003;28;20426;-72
2021/11/08 00:51:28;;;;;;;18.50;9.13;;;8.50;99.90;;;;;;4995005;28;20210;-72
2021/11/08 00:53:54;;;;;;;16.97;9.13;;;8.40;99.90;;;;;;5013321;28;20176;-72
2021/11/08 00:56:22;;;;;;;22.47;9.47;;;8.40;99.90;;;;;;5014484;28;20180;-73
2021/11/08 00:58:49;;;;;;;19.83;9.20;;;8.50;99.90;;;;;;5038337;22;20205;-70
2021/11/08 01:01:21;;;;;;;14.63;8.33;;;8.40;99.90;;;;;;5031248;28;20473;-70
2021/11/08 01:03:48;;;;;;;17.30;9.17;;;8.50;99.90;;;;;;5034770;28;20411;-69
2021/11/08 01:06:16;;;;;;;19.03;9.60;;;8.50;99.90;;;;;;5033984;28;20489;-70
2021/11/08 01:08:42;;;;;;;13.83;8.90;;;8.50;99.90;;;;;;5033610;28;20393;-69
2021/11/08 01:11:09;;;;;;;16.37;8.77;;;8.50;99.90;;;;;;5013984;28;20908;-69
2021/11/08 01:13:35;;;;;;;22.40;10.17;;;8.60;99.90;;;;;;5015378;28;20463;-70
2021/11/08 01:16:01;;;;;;;22.97;11.13;;;8.60;99.90;;;;;;4996161;28;20783;-70
2021/11/08 01:18:27;;;;;;;25.63;12.30;;;8.60;99.90;;;;;;5014058;28;20401;-70
2021/11/08 01:20:53;;;;;;;22.63;11.33;;;8.50;99.90;;;;;;4996397;28;20462;-69
2021/11/08 01:23:26;;;;;;;25.00;12.30;;;8.40;99.90;;;;;;5013581;28;20259;-70
2021/11/08 01:26:08;;;;;;;17.90;11.17;;;8.40;99.90;;;;;;5014682;28;20422;-69
2021/11/08 01:28:37;;;;;;;17.30;9.53;;;8.50;99.90;;;;;;5013844;28;20425;-69
2021/11/08 01:31:08;;;;;;;20.57;11.60;;;8.40;99.90;;;;;;5013648;28;20804;-70
2021/11/08 01:33:36;;;;;;;16.53;11.07;;;8.40;99.90;;;;;;5013889;28;20387;-69
2021/11/08 01:38:45;;;;;;;16.50;11.10;;;8.60;99.90;;;;;;5013449;28;20404;-69
2021/11/08 01:41:13;;;;;;;20.00;11.10;;;8.60;99.90;;;;;;5013566;28;20906;-70
2021/11/08 01:43:41;;;;;;;17.70;10.80;;;8.70;99.90;;;;;;4996973;28;20457;-71
2021/11/08 01:46:07;;;;;;;18.97;10.20;;;8.70;99.90;;;;;;5013361;28;21043;-69
2021/11/08 01:48:33;;;;;;;21.37;13.17;;;8.80;99.90;;;;;;5013497;28;20433;-70
2021/11/08 01:51:00;;;;;;;22.33;10.67;;;8.80;99.90;;;;;;5013332;28;20446;-70
2021/11/08 01:53:26;;;;;;;19.13;10.53;;;8.70;99.90;;;;;;5013989;28;20193;-70
2021/11/08 01:55:52;;;;;;;20.93;11.40;;;8.70;99.90;;;;;;5012331;28;20501;-71
2021/11/08 01:58:25;;;;;;;16.83;12.13;;;8.70;99.90;;;;;;5013160;28;20462;-70
2021/11/08 02:00:52;;;;;;;21.37;11.30;;;8.80;99.90;;;;;;5013117;28;20446;-70
2021/11/08 02:03:18;;;;;;;16.67;10.70;;;8.70;99.90;;;;;;5012922;28;20999;-70
2021/11/08 02:05:45;;;;;;;20.77;11.60;;;8.70;99.90;;;;;;4990201;28;20429;-71
2021/11/08 02:08:11;;;;;;;21.20;12.20;;;8.60;99.90;;;;;;5009256;28;20423;-71
2021/11/08 02:10:37;;;;;;;19.10;12.67;;;8.60;99.90;;;;;;5012839;28;20957;-70
2021/11/08 02:13:03;;;;;;;21.27;11.80;;;8.60;99.90;;;;;;5012765;28;20572;-69
2021/11/08 02:15:29;;;;;;;21.63;11.43;;;8.70;99.90;;;;;;5013841;28;20521;-68
2021/11/08 02:17:56;;;;;;;18.47;12.03;;;8.70;99.90;;;;;;5013117;28;20414;-69
2021/11/08 02:20:27;;;;;;;24.17;12.60;;;8.80;99.90;;;;;;5012999;28;20850;-68
2021/11/08 02:22:56;;;;;;;20.40;12.00;;;8.80;99.90;;;;;;5013202;28;20809;-68
2021/11/08 02:25:23;;;;;;;16.53;11.30;;;8.80;99.90;;;;;;5013746;28;20422;-69
2021/11/08 02:27:50;;;;;;;17.50;10.70;;;8.90;99.90;;;;;;4993078;28;20419;-70
2021/11/08 02:30:17;;;;;;;20.43;10.70;;;8.80;99.90;;;;;;4993062;28;20468;-70
2021/11/08 02:32:43;;;;;;;20.23;11.27;;;8.80;99.90;;;;;;4993465;28;20902;-69
2021/11/08 02:35:14;;;;;;;23.60;10.70;;;8.80;99.90;;;;;;4993182;28;20452;-70
2021/11/08 02:37:40;;;;;;;23.77;10.67;;;8.90;99.90;;;;;;5010608;28;20444;-71
2021/11/08 02:40:07;;;;;;;22.30;10.57;;;8.80;99.90;;;;;;5013252;28;20438;-70
2021/11/08 02:42:34;;;;;;;18.77;9.83;;;8.80;99.90;;;;;;5024707;28;20417;-70
2021/11/08 02:45:03;;;;;;;19.53;10.37;;;8.90;99.90;;;;;;5034586;28;20423;-69
2021/11/08 02:47:29;;;;;;;21.20;11.80;;;8.90;99.90;;;;;;5043048;28;20772;-70
2021/11/08 02:49:55;;;;;;;18.53;10.13;;;8.90;99.90;;;;;;5032761;28;20436;-69
2021/11/08 02:52:25;;;;;;;26.23;10.80;;;8.90;99.90;;;;;;5030435;28;20316;-70
2021/11/08 02:54:52;;;;;;;17.13;9.10;;;9.00;99.90;;;;;;5031394;28;20420;-70
2021/11/08 02:57:20;;;;;;;19.20;8.97;;;8.90;99.90;;;;;;5032026;28;20406;-70
2021/11/08 02:59:47;;;;;;;15.43;8.77;;;8.80;99.90;;;;;;5031841;28;20434;-70
2021/11/08 03:02:15;;;;;;;21.50;9.90;;;8.80;99.90;;;;;;5031895;28;20413;-70
2021/11/08 03:04:44;;;;;;;14.13;8.83;;;8.80;99.90;;;;;;5030303;28;20436;-71
2021/11/08 03:07:10;;;;;;;15.93;10.65;;;8.70;99.90;;;;;;5031149;28;20829;-70
2021/11/08 03:09:41;;;;;;;16.43;8.80;;;8.80;99.90;;;;;;5032060;28;20204;-70
2021/11/08 03:12:12;;;;;;;18.13;10.40;;;8.70;99.90;;;;;;5014052;28;21045;-71
2021/11/08 03:14:43;;;;;;;16.73;9.10;;;8.60;99.90;;;;;;5029891;28;20505;-70
2021/11/08 03:17:13;;;;;;;14.10;10.10;;;8.60;99.90;;;;;;5031902;28;20396;-70
2021/11/08 03:19:40;;;;;;;11.80;8.30;;;8.60;99.90;;;;;;5031819;28;20487;-70
2021/11/08 03:22:11;;;;;;;21.83;9.27;;;8.70;99.90;;;;;;5013839;28;20800;-71
2021/11/08 03:24:40;;;;;;;17.17;9.70;;;8.70;99.90;;;;;;5030249;28;20413;-69
2021/11/08 03:30:06;;;;;;;17.63;8.87;;;8.80;99.90;;;;;;5031426;28;20467;-70
2021/11/08 03:32:35;;;;;;;15.57;8.90;;;8.80;99.90;;;;;;5031438;28;20460;-70
2021/11/08 03:35:04;;;;;;;13.40;8.33;;;8.80;99.90;;;;;;5029997;28;20569;-71
2021/11/08 03:37:38;;;;;;;17.60;9.40;;;8.80;99.90;;;;;;5032088;28;20411;-71
2021/11/08 03:40:07;;;;;;;16.57;8.93;;;8.90;99.90;;;;;;5031539;28;20794;-71
2021/11/08 03:42:34;;;;;;;19.13;8.37;;;8.90;99.90;;;;;;5033185;28;20420;-69
2021/11/08 03:45:00;;;;;;;13.10;9.17;;;8.90;99.90;;;;;;5030579;28;21044;-71
2021/11/08 03:47:26;;;;;;;18.23;9.00;;;8.90;99.90;;;;;;5032552;28;20504;-70
2021/11/08 03:49:52;;;;;;;11.90;8.20;;;9.00;99.90;;;;;;5033809;28;20191;-70
2021/11/08 03:52:17;;;;;;;15.10;7.90;;;9.00;99.90;;;;;;5035471;28;20571;-70
2021/11/08 03:54:43;;;;;;;19.63;8.50;;;9.00;99.90;;;;;;5030912;28;20225;-70
2021/11/08 03:57:09;;;;;;;18.20;8.90;;;9.00;99.90;;;;;;5029902;28;20514;-70
2021/11/08 03:59:34;;;;;;;17.07;8.60;;;9.00;99.90;;;;;;5031493;28;20290;-70
2021/11/08 04:02:01;;;;;;;13.07;7.50;;;9.00;99.90;;;;;;5031223;28;20175;-70
2021/11/08 04:04:26;;;;;;;17.70;8.33;;;9.00;99.90;;;;;;5022804;28;20178;-70
2021/11/08 04:06:52;;;;;;;18.33;10.67;;;9.00;99.90;;;;;;5012555;28;20433;-70
2021/11/08 04:09:18;;;;;;;13.00;8.43;;;9.00;99.90;;;;;;5011641;28;20332;-70
2021/11/08 04:11:44;;;;;;;16.43;9.13;;;9.10;99.90;;;;;;5011863;28;20209;-70
2021/11/08 04:14:11;;;;;;;14.90;8.33;;;9.10;99.90;;;;;;5011528;28;20178;-70
2021/11/08 04:16:39;;;;;;;17.67;8.57;;;9.00;99.90;;;;;;5011536;28;20433;-70
2021/11/08 04:19:08;;;;;;;18.70;8.90;;;9.00;99.90;;;;;;5016578;28;20488;-70
2021/11/08 04:21:35;;;;;;;12.00;8.27;;;9.00;99.90;;;;;;5014821;28;20443;-69
2021/11/08 04:24:01;;;;;;;15.40;8.67;;;9.00;99.90;;;;;;5015140;28;20410;-71
2021/11/08 04:26:29;;;;;;;12.00;7.63;;;9.00;99.90;;;;;;5014935;28;20425;-70
2021/11/08 04:29:04;;;;;;;18.23;8.67;;;9.00;99.90;;;;;;5015925;28;20427;-70
2021/11/08 04:31:34;;;;;;;12.53;7.30;;;9.00;99.90;;;;;;5015035;28;20554;-70
2021/11/08 04:34:16;;;;;;;18.40;8.10;;;8.90;99.90;;;;;;5014863;28;20794;-70
2021/11/08 04:37:03;;;;;;;20.00;7.47;;;8.90;99.90;;;;;;5013524;28;20930;-71
2021/11/08 04:39:35;;;;;;;21.90;8.90;;;8.90;99.90;;;;;;5016219;28;20877;-70
2021/11/08 04:42:09;;;;;;;14.10;7.97;;;9.00;99.90;;;;;;5022475;28;20420;-70
2021/11/08 04:49:55;;;;;;;18.93;9.20;;;8.90;99.90;;;;;;5007029;28;20444;-70
2021/11/08 04:52:29;;;;;;;16.40;7.90;;;8.80;99.90;;;;;;5015771;28;20517;-70
2021/11/08 05:22:52;;;;;;;17.20;8.07;;;8.70;99.90;;;;;;5012091;28;20437;-70
2021/11/08 05:30:09;;;;;;;20.67;8.47;;;8.80;99.90;;;;;;5013084;28;20997;-69
2021/11/08 05:32:41;;;;;;;23.73;8.57;;;8.90;99.90;;;;;;5013287;28;20454;-70
2021/11/08 05:35:10;;;;;;;16.13;8.77;;;8.80;99.90;;;;;;5014970;28;20779;-70
2021/11/08 05:37:38;;;;;;;20.03;9.23;;;8.80;99.90;;;;;;5014145;28;20938;-70
2021/11/08 05:40:12;;;;;;;22.40;10.00;;;8.80;99.90;;;;;;5013962;28;20513;-70
2021/11/08 05:42:39;;;;;;;20.47;8.10;;;8.80;99.90;;;;;;5013823;28;20397;-70
2021/11/08 05:45:11;;;;;;;15.90;7.97;;;8.90;99.90;;;;;;5014448;28;20410;-70
2021/11/08 05:47:38;;;;;;;27.13;9.90;;;8.80;99.90;;;;;;4996143;28;21055;-70
2021/11/08 05:50:06;;;;;;;16.43;8.70;;;8.80;99.90;;;;;;5017363;28;20435;-70
2021/11/08 05:52:32;;;;;;;17.57;7.80;;;8.80;99.90;;;;;;5030506;28;20457;-69
2021/11/08 05:54:58;;;;;;;25.20;9.83;;;8.80;99.90;;;;;;5023066;28;20505;-71
2021/11/08 06:49:43;;;;;;;15.43;9.37;;;8.50;99.90;;;;;;5019693;28;20516;-71
2021/11/08 06:52:11;;;;;;;16.90;9.33;;;8.50;99.90;;;;;;5012088;28;20481;-70
2021/11/08 06:54:37;;;;;;;15.90;9.10;;;8.50;99.90;;;;;;5010821;28;20498;-69
2021/11/08 06:57:14;;;;;;;23.57;10.63;;;8.40;99.90;;;;;;5014351;28;20476;-69
2021/11/08 06:59:41;;;;;;;23.23;10.43;;;8.50;99.90;;;;;;5014925;28;20561;-70
2021/11/08 07:02:07;;;;;;;21.60;10.73;;;8.40;99.90;;;;;;5016751;28;20436;-70
2021/11/08 07:04:33;;;;;;;24.83;11.57;;;8.40;99.90;;;;;;5033018;28;20859;-69
2021/11/08 07:07:00;;;;;;;21.53;9.97;;;8.40;99.90;;;;;;5056137;22;20504;-71
2021/11/08 07:09:25;;;;;;;22.63;9.53;;;8.40;99.90;;;;;;5034367;28;20878;-71
2021/11/08 07:11:51;;;;;;;19.30;9.70;;;8.40;99.90;;;;;;5053801;28;20446;-72
2021/11/08 07:14:17;;;;;;;21.47;9.90;;;8.40;99.90;;;;;;5030859;28;20175;-72
2021/11/08 07:16:44;;;;;;;20.13;10.27;;;8.50;99.90;;;;;;5006894;28;20525;-72
2021/11/08 07:19:12;;;;;;;18.17;9.80;;;8.40;99.90;;;;;;4994855;28;20418;-72
2021/11/08 07:21:38;;;;;;;19.53;9.03;;;8.40;99.90;;;;;;4994885;28;20407;-72
2021/11/08 07:24:04;;;;;;;25.60;9.93;;;8.40;99.90;;;;;;4982423;28;20428;-71
2021/11/08 07:26:30;;;;;;;17.17;10.17;;;8.50;99.90;;;;;;5015270;28;20434;-72
2021/11/08 07:28:56;;;;;;;22.70;11.60;;;8.60;99.90;;;;;;5014940;28;20241;-72
2021/11/08 07:31:22;;;;;;;24.77;10.93;;;8.70;99.90;;;;;;5014308;28;20203;-71
2021/11/08 07:33:48;;;;;;;25.13;11.87;;;8.70;99.90;;;;;;5014521;28;20224;-71
2021/11/08 07:36:13;;;;;;;23.47;11.07;;;8.70;99.90;;;;;;5015189;28;20427;-72
2021/11/08 07:38:39;;;;;;;20.73;11.60;;;8.70;99.90;;;;;;5016410;28;20175;-72
2021/11/08 07:41:07;;;;;;;23.20;12.13;;;8.70;99.90;;;;;;5016908;28;20407;-73
2021/11/08 07:43:34;;;;;;;23.93;12.60;;;8.70;99.90;;;;;;5017609;28;20174;-73
2021/11/08 07:46:00;;;;;;;19.23;11.20;;;8.70;99.90;;;;;;5025380;28;20781;-71
2021/11/08 07:48:26;;;;;;;19.50;12.43;;;8.80;99.90;;;;;;5016261;28;20412;-74
2021/11/08 07:50:52;;;;;;;28.37;12.90;;;8.80;99.90;;;;;;5016549;28;20172;-70
2021/11/08 07:53:17;;;;;;;25.77;12.50;;;8.90;99.90;;;;;;5018164;28;20205;-72
2021/11/08 07:55:43;;;;;;;25.23;12.40;;;8.90;99.90;;;;;;5018064;28;20410;-71
2021/11/08 07:58:09;;;;;;;26.80;13.60;;;8.90;99.90;;;;;;5019635;28;20682;-72
2021/11/08 08:00:37;;;;;;;19.80;11.60;;;8.90;99.90;;;;;;5019948;28;20412;-72
2021/11/08 08:03:03;;;;;;;31.77;12.97;;;8.90;99.90;;;;;;5018930;28;20182;-72
2021/11/08 08:05:30;;;;;;;23.23;11.97;;;8.80;99.90;;;;;;5019639;28;20920;-73
2021/11/08 08:07:56;;;;;;;19.90;11.50;;;8.90;99.90;;;;;;5000429;28;20455;-71
2021/11/08 08:10:22;;;;;;;25.73;12.00;;;9.00;99.90;;;;;;5020426;28;20954;-72
2021/11/08 08:12:47;;;;;;;15.77;9.83;;;8.90;99.90;;;;;;5017590;28;20320;-72
2021/11/08 08:15:15;;;;;;;24.80;12.17;;;8.90;99.90;;;;;;5017121;28;20824;-73
2021/11/08 08:17:40;;;;;;;19.83;11.57;;;8.80;99.90;;;;;;5016679;28;20184;-72
2021/11/08 08:20:14;;;;;;;20.60;11.20;;;8.90;99.90;;;;;;5018057;28;20416;-72
2021/11/08 08:22:40;;;;;;;20.57;10.37;;;9.10;99.90;;;;;;5019221;28;20175;-72
2021/11/08 08:25:06;;;;;;;16.27;10.30;;;9.10;99.90;;;;;;5018213;28;20417;-71
2021/11/08 08:27:31;;;;;;;22.97;11.10;;;9.10;99.90;;;;;;5018137;28;20759;-71
2021/11/08 08:29:57;;;;;;;18.30;10.27;;;9.20;99.90;;;;;;5018194;28;20428;-74
2021/11/08 08:32:23;;;;;;;25.00;12.00;;;9.30;99.90;;;;;;5016542;28;20598;-73
2021/11/08 08:34:49;;;;;;;20.40;10.93;;;9.40;99.90;;;;;;5017470;28;20171;-73
2021/11/08 08:37:15;;;;;;;20.43;9.80;;;9.50;99.90;;;;;;5016872;28;20183;-73
2021/11/08 08:39:41;;;;;;;21.23;10.40;;;9.60;99.90;;;;;;5017269;28;20451;-71
2021/11/08 08:42:07;;;;;;;20.17;9.27;;;9.70;99.90;;;;;;5018117;28;20453;-70
2021/11/08 08:44:33;;;;;;;20.57;10.17;;;9.80;99.90;;;;;;5027430;28;20724;-72
2021/11/08 08:46:59;;;;;;;21.93;9.57;;;9.70;99.90;;;;;;5023222;28;20202;-71
2021/11/08 08:49:25;;;;;;;21.77;9.23;;;9.70;99.90;;;;;;5017831;28;20432;-72
2021/11/08 08:51:52;;;;;;;18.60;9.43;;;9.80;99.90;;;;;;5016871;28;20210;-70
2021/11/08 08:54:17;;;;;;;22.97;9.30;;;9.80;99.90;;;;;;5016577;28;20430;-71
2021/11/08 08:56:43;;;;;;;18.20;9.50;;;9.90;99.90;;;;;;4999637;28;20549;-71
2021/11/08 08:59:09;;;;;;;23.10;10.57;;;9.90;99.90;;;;;;5016920;28;20195;-73
2021/11/08 09:01:35;;;;;;;17.20;8.30;;;10.00;99.90;;;;;;5016104;28;20176;-73
2021/11/08 09:04:01;;;;;;;17.00;9.13;;;10.00;99.90;;;;;;5012956;28;20563;-72
2021/11/08 09:06:27;;;;;;;27.73;9.57;;;10.10;99.90;;;;;;5013486;28;20453;-72
2021/11/08 09:08:54;;;;;;;20.23;9.43;;;10.10;99.90;;;;;;5014483;28;20787;-72
2021/11/08 09:11:19;;;;;;;20.03;9.77;;;10.10;99.90;;;;;;5014591;28;20411;-71
2021/11/08 09:13:46;;;;;;;21.17;9.33;;;10.10;99.90;;;;;;5014864;28;20462;-72
2021/11/08 09:16:12;;;;;;;15.97;9.33;;;10.20;99.90;;;;;;5015499;28;20202;-71
2021/11/08 09:18:49;;;;;;;24.20;9.20;;;10.30;99.90;;;;;;5015758;28;20421;-71
2021/11/08 09:21:16;;;;;;;19.40;9.10;;;10.30;99.90;;;;;;5017475;28;20923;-72
2021/11/08 09:23:42;;;;;;;18.60;10.60;;;10.30;99.90;;;;;;5017632;28;20415;-71
2021/11/08 09:26:10;;;;;;;21.90;10.13;;;10.30;99.90;;;;;;5018352;28;20434;-71
2021/11/08 09:28:36;;;;;;;17.73;10.13;;;10.30;99.90;;;;;;5019120;28;20951;-72
2021/11/08 09:31:03;;;;;;;21.00;10.30;;;10.30;99.90;;;;;;5022492;28;20872;-71
2021/11/08 09:33:30;;;;;;;22.40;11.57;;;10.20;99.90;;;;;;5020640;28;20457;-72
2021/11/08 09:35:59;;;;;;;23.60;11.87;;;10.10;99.90;;;;;;5018819;28;20476;-72
2021/11/08 09:38:25;;;;;;;19.77;11.57;;;10.20;99.90;;;;;;5017816;28;20399;-71
2021/11/08 09:40:51;;;;;;;22.27;11.03;;;10.20;99.90;;;;;;5017439;28;20411;-71
2021/11/08 09:43:22;;;;;;;24.93;11.70;;;10.30;99.90;;;;;;5017887;28;20172;-72
2021/11/08 09:45:49;;;;;;;20.47;11.73;;;10.40;99.90;;;;;;5004923;28;20175;-73
2021/11/08 09:48:15;;;;;;;17.33;11.30;;;10.40;99.90;;;;;;5017027;28;20445;-72
2021/11/08 09:50:43;;;;;;;21.30;10.87;;;10.50;99.90;;;;;;5017423;28;20471;-73
2021/11/08 09:53:10;;;;;;;17.50;11.60;;;10.60;99.90;;;;;;5016693;28;20454;-72
2021/11/08 09:55:36;;;;;;;23.97;12.20;;;10.80;99.90;;;;;;5017424;28;20409;-73
2021/11/08 09:58:04;;;;;;;18.80;10.97;;;10.90;99.90;;;;;;5016454;28;20439;-72
2021/11/08 10:00:35;;;;;;;23.63;10.20;;;11.00;99.90;;;;;;5018104;28;20168;-73
2021/11/08 10:03:04;;;;;;;21.83;10.13;;;11.00;99.90;;;;;;5017498;28;20445;-73
2021/11/08 10:05:39;;;;;;;18.47;9.50;;;11.20;99.90;;;;;;5017471;28;20923;-71
2021/11/08 10:08:05;;;;;;;15.53;9.10;;;11.30;99.90;;;;;;5016616;28;20536;-72
2021/11/08 10:10:31;;;;;;;17.33;9.63;;;11.40;99.90;;;;;;4999049;28;20761;-72
2021/11/08 10:13:07;;;;;;;19.07;9.57;;;11.30;99.90;;;;;;5016730;28;20512;-71
2021/11/08 10:15:33;;;;;;;15.43;8.97;;;11.30;99.90;;;;;;5015277;28;20175;-71
2021/11/08 10:18:01;;;;;;;18.90;9.57;;;11.30;99.90;;;;;;5015881;28;20450;-71
2021/11/08 10:20:37;;;;;;;17.63;9.43;;;11.20;99.90;;;;;;5016357;28;20418;-73
2021/11/08 10:23:04;;;;;;;17.20;8.60;;;11.20;99.90;;;;;;5016025;28;20414;-71
2021/11/08 10:25:30;;;;;;;18.57;8.63;;;11.20;99.90;;;;;;5016037;28;20433;-71
2021/11/08 10:27:57;;;;;;;14.10;7.60;;;11.10;99.90;;;;;;5015503;28;20810;-72
2021/11/08 10:30:30;;;;;;;17.93;8.67;;;11.00;99.90;;;;;;4997971;28;20414;-72
2021/11/08 10:33:14;;;;;;;17.53;8.63;;;10.90;99.90;;;;;;5015633;28;20876;-72
2021/11/08 10:35:52;;;;;;;18.40;8.57;;;11.00;99.90;;;;;;5015742;28;20422;-71
2021/11/08 10:38:25;;;;;;;19.07;7.67;;;11.20;99.90;;;;;;5015902;28;20450;-72
2021/11/08 10:41:02;;;;;;;15.37;7.30;;;11.50;99.90;;;;;;5016307;28;20748;-72
2021/11/08 10:43:34;;;;;;;18.40;8.13;;;11.70;99.90;;;;;;5016253;28;20421;-72
2021/11/08 10:46:03;;;;;;;14.17;7.43;;;11.90;99.90;;;;;;5026200;28;20399;-72
2021/11/08 10:48:33;;;;;;;18.13;8.53;;;11.90;99.90;;;;;;5016788;28;20416;-71
2021/11/08 10:51:01;;;;;;;22.20;8.50;;;12.00;99.90;;;;;;4999695;28;20869;-72
2021/11/08 10:53:30;;;;;;;24.40;7.40;;;11.90;99.90;;;;;;5015513;28;21158;-73
2021/11/08 10:56:06;;;;;;;20.40;8.83;;;11.90;99.90;;;;;;5014071;28;20504;-71
2021/11/08 10:58:32;;;;;;;14.13;8.20;;;11.80;99.90;;;;;;5015403;28;20406;-73
2021/11/08 11:01:01;;;;;;;18.20;9.07;;;11.70;99.90;;;;;;5015700;28;20450;-72
2021/11/08 11:03:28;;;;;;;17.23;8.20;;;11.70;99.90;;;;;;5014868;28;20481;-72
2021/11/08 11:06:01;;;;;;;18.77;6.83;;;11.70;99.90;;;;;;5014600;28;20422;-72
2021/11/08 11:08:28;;;;;;;15.07;6.70;;;11.60;99.90;;;;;;5015350;28;20403;-72
2021/11/08 11:11:05;;;;;;;16.67;7.90;;;11.70;99.90;;;;;;5016348;28;20406;-72
2021/11/08 11:13:33;;;;;;;15.10;8.40;;;11.80;99.90;;;;;;5013554;28;21029;-73
2021/11/08 11:16:02;;;;;;;18.53;7.80;;;11.70;99.90;;;;;;5012843;28;20454;-73
2021/11/08 11:18:34;;;;;;;22.20;9.40;;;11.90;99.90;;;;;;5012959;28;20512;-73
2021/11/08 11:21:12;;;;;;;17.87;8.33;;;11.80;99.90;;;;;;5012364;28;20501;-72
2021/11/08 11:23:50;;;;;;;24.73;8.93;;;11.70;99.90;;;;;;5012286;28;20418;-72
2021/11/08 11:26:17;;;;;;;18.40;7.70;;;11.70;99.90;;;;;;4999156;28;20504;-71
2021/11/08 11:28:46;;;;;;;18.03;8.67;;;11.70;99.90;;;;;;5012854;28;20509;-71
2021/11/08 11:31:14;;;;;;;13.73;8.43;;;11.70;99.90;;;;;;5013157;28;20425;-73
2021/11/08 11:33:41;;;;;;;21.13;9.50;;;11.60;99.90;;;;;;5013520;28;20458;-72
2021/11/08 11:36:10;;;;;;;17.63;9.47;;;11.60;99.90;;;;;;5012713;28;20576;-72
2021/11/08 11:38:41;;;;;;;16.03;7.90;;;11.60;99.90;;;;;;5014136;28;20447;-73
2021/11/08 11:41:10;;;;;;;23.00;8.60;;;11.60;99.90;;;;;;5013602;28;20472;-72
2021/11/08 11:43:48;;;;;;;23.90;8.73;;;11.70;99.90;;;;;;5015411;28;20418;-72
2021/11/08 11:46:26;;;;;;;16.33;8.70;;;11.70;99.90;;;;;;5021384;28;20426;-73
2021/11/08 11:48:52;;;;;;;16.40;8.40;;;11.70;99.90;;;;;;5013565;28;20465;-72
2021/11/08 11:51:27;;;;;;;20.00;9.10;;;11.70;99.90;;;;;;5013388;28;20413;-72
2021/11/08 11:53:54;;;;;;;18.60;9.10;;;11.70;99.90;;;;;;5012512;28;20426;-72
2021/11/08 11:56:21;;;;;;;19.50;9.50;;;11.60;99.90;;;;;;5012159;28;20426;-73
2021/11/08 11:58:48;;;;;;;15.97;8.80;;;11.60;99.90;;;;;;5011554;28;20403;-73
2021/11/08 12:01:16;;;;;;;21.90;9.53;;;11.60;99.90;;;;;;5012007;28;20407;-72
2021/11/08 12:03:42;;;;;;;17.83;8.47;;;11.50;99.90;;;;;;5011504;28;20429;-72
2021/11/08 12:06:19;;;;;;;15.23;8.23;;;11.60;99.90;;;;;;5010976;28;20426;-73
2021/11/08 12:08:46;;;;;;;17.00;8.37;;;11.60;99.90;;;;;;5012044;28;20903;-74
2021/11/08 12:11:12;;;;;;;18.10;9.13;;;11.50;99.90;;;;;;5012053;28;20410;-72
2021/11/08 12:13:40;;;;;;;18.77;8.67;;;11.50;99.90;;;;;;5011596;28;20462;-72
2021/11/08 12:16:18;;;;;;;15.43;8.30;;;11.60;99.90;;;;;;5006575;28;20192;-72
2021/11/08 12:18:46;;;;;;;16.50;8.43;;;11.50;99.90;;;;;;5015425;28;20484;-73
2021/11/08 12:21:23;;;;;;;16.90;9.80;;;11.60;99.90;;;;;;4984975;28;20479;-72
2021/11/08 12:23:49;;;;;;;21.53;10.60;;;11.70;99.90;;;;;;5022543;28;20445;-72
2021/11/08 12:26:29;;;;;;;23.10;10.80;;;11.70;99.90;;;;;;5012918;28;20462;-72
2021/11/08 12:29:13;;;;;;;24.67;9.83;;;11.80;99.90;;;;;;5021397;28;20273;-74
2021/11/08 12:31:39;;;;;;;20.93;8.37;;;11.80;99.90;;;;;;5022938;28;20907;-72
2021/11/08 12:34:19;;;;;;;16.47;8.67;;;11.90;99.90;;;;;;5012725;28;20439;-72
2021/11/08 12:36:59;;;;;;;14.93;7.60;;;11.90;99.90;;;;;;5011895;28;20811;-72
2021/11/08 12:39:26;;;;;;;16.27;7.82;;;12.00;99.90;;;;;;5015012;28;20498;-72
2021/11/08 12:41:56;;;;;;;16.53;7.63;;;11.90;99.90;;;;;;5016039;28;20203;-70
2021/11/08 12:44:36;;;;;;;18.03;7.13;;;11.90;99.90;;;;;;5023522;28;20442;-70
2021/11/08 12:47:02;;;;;;;19.10;7.70;;;11.90;99.90;;;;;;5000033;28;20473;-70
2021/11/08 12:49:31;;;;;;;16.40;6.20;;;11.90;99.90;;;;;;5015975;28;20896;-74
2021/11/08 12:52:07;;;;;;;20.20;6.23;;;11.80;99.90;;;;;;5014979;28;20461;-71
2021/11/08 12:54:57;;;;;;;13.73;6.00;;;11.80;99.90;;;;;;5016148;28;20521;-71
2021/11/08 12:57:25;;;;;;;21.37;6.57;;;11.70;99.90;;;;;;5032252;28;20969;-70
2021/11/08 12:59:59;;;;;;;17.70;7.10;;;11.70;99.90;;;;;;5035667;28;20505;-72
2021/11/08 13:02:37;;;;;;;19.43;6.90;;;11.60;99.90;;;;;;5022152;28;20488;-72
2021/11/08 13:05:06;;;;;;;17.30;6.70;;;11.50;99.90;;;;;;5016626;28;20509;-72
2021/11/08 13:07:35;;;;;;;14.87;7.70;;;11.60;99.90;;;;;;5043447;23;20591;-68
2021/11/08 13:10:02;;;;;;;19.20;7.00;;;11.60;99.90;;;;;;5053669;28;20425;-70
2021/11/08 13:12:41;;;;;;;12.40;7.43;;;11.50;99.90;;;;;;5053694;28;20471;-69
2021/11/08 13:15:09;;;;;;;14.50;6.63;;;11.60;99.90;;;;;;5035537;28;20413;-69
2021/11/08 13:17:51;;;;;;;15.20;6.80;;;11.60;99.90;;;;;;5015783;28;20445;-69
2021/11/08 13:20:21;;;;;;;19.73;7.70;;;11.60;99.90;;;;;;5033725;28;20433;-69
2021/11/08 13:22:51;;;;;;;14.53;7.40;;;11.60;99.90;;;;;;5033606;28;20427;-70
2021/11/08 13:25:28;;;;;;;18.33;7.43;;;11.60;99.90;;;;;;5034206;28;20417;-69
2021/11/08 13:28:03;;;;;;;19.80;8.23;;;11.70;99.90;;;;;;5034769;28;20447;-69
2021/11/08 13:30:42;;;;;;;12.37;7.57;;;11.80;99.90;;;;;;5036922;28;20762;-71
2021/11/08 13:33:10;;;;;;;16.50;7.27;;;11.90;99.90;;;;;;5035846;28;20457;-70
2021/11/08 13:35:40;;;;;;;20.53;7.30;;;11.90;99.90;;;;;;5034419;28;20441;-70
2021/11/08 13:38:13;;;;;;;14.40;7.83;;;11.90;99.90;;;;;;5033257;28;20465;-71
2021/11/08 13:40:45;;;;;;;16.97;7.63;;;12.00;99.90;;;;;;5033232;28;20405;-68
2021/11/08 13:43:39;;;;;;;18.83;7.00;;;11.90;99.90;;;;;;5033350;28;20801;-70
2021/11/08 13:46:30;;;;;;;22.67;8.83;;;11.90;99.90;;;;;;5039986;28;20424;-70
2021/11/08 13:49:20;;;;;;;17.50;6.40;;;11.90;99.90;;;;;;5035246;28;20436;-69
2021/11/08 13:51:50;;;;;;;16.70;7.37;;;11.80;99.90;;;;;;5052558;28;20475;-70
2021/11/08 13:54:24;;;;;;;17.70;6.73;;;11.90;99.90;;;;;;5054468;28;20409;-70
2021/11/08 13:56:51;;;;;;;15.70;6.83;;;11.90;99.90;;;;;;5051545;28;20408;-70
2021/11/08 13:59:25;;;;;;;17.43;6.90;;;11.90;99.90;;;;;;5053110;28;20436;-69
2021/11/08 14:01:58;;;;;;;17.60;7.40;;;11.80;99.90;;;;;;5053339;28;20373;-69
2021/11/08 14:04:35;;;;;;;17.30;7.00;;;11.70;99.90;;;;;;5052983;28;20420;-69
2021/11/08 14:07:02;;;;;;;21.57;7.10;;;11.70;99.90;;;;;;5051034;28;20451;-70
2021/11/08 14:09:27;;;;;;;22.63;6.67;;;11.70;99.90;;;;;;5052383;28;20523;-69
2021/11/08 14:11:56;;;;;;;12.30;5.90;;;11.70;99.90;;;;;;5053147;28;20562;-69
2021/11/08 14:14:23;;;;;;;14.00;6.33;;;11.70;99.90;;;;;;5052479;28;20405;-70
2021/11/08 14:16:51;;;;;;;20.80;6.37;;;11.60;99.90;;;;;;5052149;28;20458;-69
2021/11/08 14:19:18;;;;;;;13.10;6.43;;;11.60;99.90;;;;;;5052068;28;20479;-69
2021/11/08 14:21:47;;;;;;;14.43;6.83;;;11.50;99.90;;;;;;5052773;28;20763;-70
2021/11/08 14:24:19;;;;;;;16.73;6.30;;;11.50;99.90;;;;;;5052756;28;20476;-69
2021/11/08 14:26:53;;;;;;;14.00;6.90;;;11.40;99.90;;;;;;5053812;28;20460;-69
2021/11/08 14:29:23;;;;;;;13.47;5.30;;;11.40;99.90;;;;;;5052637;28;20431;-69